Terminal Aerodrome Forecast
Issued by NWS

Home | Current Version | Previous Version | Graphics & Text | Print | Product List | Glossary Off
Versions: 1 2 3 4 5 6 7 8 9 10 11 12 13 14 15 16 17 18 19 20 21 22 23 24 25 26 27 28 29 30 31

517
FTUS43 KDDC 301120
TAFHYS
TAF
KHYS 301120Z 3012/0112 03031G40KT 4SM -RA BR OVC008
     FM010100 33023G34KT P6SM VCSH OVC008
     FM010500 30017KT P6SM BKN008
     FM011000 29016G24KT P6SM FEW100 WS006/33010KT=

USA.gov is the U.S. government's official web portal to all federal, state and local government web resources and services.